sensor_id;sensor_type;location;lat;lon;timestamp;P1;durP1;ratioP1;P2;durP2;ratioP2
84379;SDS011;74571;52.514;13.468;2023-12-28T00:01:03;7.13;;;3.50;;
84379;SDS011;74571;52.514;13.468;2023-12-28T00:03:34;7.55;;;3.42;;
84379;SDS011;74571;52.514;13.468;2023-12-28T00:05:59;7.57;;;3.20;;
84379;SDS011;74571;52.514;13.468;2023-12-28T00:08:27;6.78;;;3.10;;
84379;SDS011;74571;52.514;13.468;2023-12-28T00:10:52;9.63;;;4.13;;
84379;SDS011;74571;52.514;13.468;2023-12-28T00:13:17;9.43;;;4.00;;
84379;SDS011;74571;52.514;13.468;2023-12-28T00:15:43;7.13;;;3.63;;
84379;SDS011;74571;52.514;13.468;2023-12-28T00:18:08;7.67;;;3.67;;
84379;SDS011;74571;52.514;13.468;2023-12-28T00:20:33;8.33;;;3.30;;
84379;SDS011;74571;52.514;13.468;2023-12-28T00:22:58;8.57;;;3.50;;
84379;SDS011;74571;52.514;13.468;2023-12-28T00:25:25;5.70;;;3.00;;
84379;SDS011;74571;52.514;13.468;2023-12-28T00:27:50;7.93;;;3.75;;
84379;SDS011;74571;52.514;13.468;2023-12-28T00:30:16;7.23;;;3.50;;
84379;SDS011;74571;52.514;13.468;2023-12-28T00:32:42;7.45;;;3.15;;
84379;SDS011;74571;52.514;13.468;2023-12-28T00:35:09;6.25;;;3.15;;
84379;SDS011;74571;52.514;13.468;2023-12-28T00:37:35;5.22;;;3.17;;
84379;SDS011;74571;52.514;13.468;2023-12-28T00:40:00;9.20;;;4.20;;
84379;SDS011;74571;52.514;13.468;2023-12-28T00:42:25;9.90;;;3.40;;
84379;SDS011;74571;52.514;13.468;2023-12-28T00:44:51;8.33;;;3.20;;
84379;SDS011;74571;52.514;13.468;2023-12-28T00:47:17;4.95;;;2.95;;
84379;SDS011;74571;52.514;13.468;2023-12-28T00:49:42;10.23;;;3.17;;
84379;SDS011;74571;52.514;13.468;2023-12-28T00:52:10;5.10;;;3.30;;
84379;SDS011;74571;52.514;13.468;2023-12-28T00:54:35;9.00;;;4.17;;
84379;SDS011;74571;52.514;13.468;2023-12-28T00:57:02;6.97;;;3.58;;
84379;SDS011;74571;52.514;13.468;2023-12-28T00:59:28;7.15;;;3.63;;
84379;SDS011;74571;52.514;13.468;2023-12-28T01:01:54;8.48;;;3.53;;
84379;SDS011;74571;52.514;13.468;2023-12-28T01:04:20;6.67;;;3.60;;
84379;SDS011;74571;52.514;13.468;2023-12-28T01:06:48;5.07;;;3.13;;
84379;SDS011;74571;52.514;13.468;2023-12-28T01:09:13;9.00;;;3.27;;
84379;SDS011;74571;52.514;13.468;2023-12-28T01:11:38;9.77;;;4.73;;
84379;SDS011;74571;52.514;13.468;2023-12-28T01:14:04;9.30;;;4.30;;
84379;SDS011;74571;52.514;13.468;2023-12-28T01:16:29;5.50;;;3.33;;
84379;SDS011;74571;52.514;13.468;2023-12-28T01:18:54;5.90;;;2.97;;
84379;SDS011;74571;52.514;13.468;2023-12-28T01:21:19;9.00;;;4.13;;
84379;SDS011;74571;52.514;13.468;2023-12-28T01:23:45;11.67;;;5.50;;
84379;SDS011;74571;52.514;13.468;2023-12-28T01:26:12;8.10;;;3.80;;
84379;SDS011;74571;52.514;13.468;2023-12-28T01:28:39;9.00;;;4.38;;
84379;SDS011;74571;52.514;13.468;2023-12-28T01:31:04;5.63;;;3.40;;
84379;SDS011;74571;52.514;13.468;2023-12-28T01:33:29;10.80;;;3.73;;
84379;SDS011;74571;52.514;13.468;2023-12-28T01:35:54;7.03;;;3.13;;
84379;SDS011;74571;52.514;13.468;2023-12-28T01:38:20;6.07;;;3.20;;
84379;SDS011;74571;52.514;13.468;2023-12-28T01:40:45;8.38;;;3.28;;
84379;SDS011;74571;52.514;13.468;2023-12-28T01:43:11;7.50;;;3.67;;
84379;SDS011;74571;52.514;13.468;2023-12-28T01:45:36;5.13;;;3.00;;
84379;SDS011;74571;52.514;13.468;2023-12-28T01:48:01;5.10;;;3.00;;
84379;SDS011;74571;52.514;13.468;2023-12-28T01:50:27;6.90;;;3.28;;
84379;SDS011;74571;52.514;13.468;2023-12-28T01:52:53;7.93;;;3.23;;
84379;SDS011;74571;52.514;13.468;2023-12-28T01:55:20;6.80;;;3.58;;
84379;SDS011;74571;52.514;13.468;2023-12-28T01:57:46;4.40;;;2.80;;
84379;SDS011;74571;52.514;13.468;2023-12-28T02:00:13;6.15;;;3.28;;
84379;SDS011;74571;52.514;13.468;2023-12-28T02:02:38;5.40;;;2.92;;
84379;SDS011;74571;52.514;13.468;2023-12-28T02:05:04;4.93;;;2.92;;
84379;SDS011;74571;52.514;13.468;2023-12-28T02:07:30;6.90;;;2.85;;
84379;SDS011;74571;52.514;13.468;2023-12-28T02:09:57;8.02;;;3.08;;
84379;SDS011;74571;52.514;13.468;2023-12-28T02:12:22;5.73;;;2.83;;
84379;SDS011;74571;52.514;13.468;2023-12-28T02:14:48;6.85;;;2.97;;
84379;SDS011;74571;52.514;13.468;2023-12-28T02:17:15;6.50;;;2.87;;
84379;SDS011;74571;52.514;13.468;2023-12-28T02:19:51;6.80;;;3.13;;
84379;SDS011;74571;52.514;13.468;2023-12-28T02:22:19;5.90;;;3.30;;
84379;SDS011;74571;52.514;13.468;2023-12-28T02:24:53;4.72;;;2.80;;
84379;SDS011;74571;52.514;13.468;2023-12-28T02:27:43;4.25;;;2.58;;
84379;SDS011;74571;52.514;13.468;2023-12-28T02:30:11;3.45;;;2.60;;
84379;SDS011;74571;52.514;13.468;2023-12-28T02:38:20;4.65;;;2.70;;
84379;SDS011;74571;52.514;13.468;2023-12-28T02:40:49;5.72;;;3.33;;
84379;SDS011;74571;52.514;13.468;2023-12-28T02:43:15;3.25;;;2.22;;
84379;SDS011;74571;52.514;13.468;2023-12-28T02:45:40;4.35;;;2.60;;
84379;SDS011;74571;52.514;13.468;2023-12-28T02:48:06;4.40;;;2.50;;
84379;SDS011;74571;52.514;13.468;2023-12-28T02:50:32;4.45;;;2.45;;
84379;SDS011;74571;52.514;13.468;2023-12-28T02:52:58;5.57;;;2.67;;
84379;SDS011;74571;52.514;13.468;2023-12-28T02:55:23;3.38;;;2.50;;
84379;SDS011;74571;52.514;13.468;2023-12-28T02:57:49;4.57;;;2.47;;
84379;SDS011;74571;52.514;13.468;2023-12-28T03:00:15;4.63;;;2.30;;
84379;SDS011;74571;52.514;13.468;2023-12-28T03:02:41;2.75;;;2.00;;
84379;SDS011;74571;52.514;13.468;2023-12-28T03:05:06;3.20;;;2.10;;
84379;SDS011;74571;52.514;13.468;2023-12-28T03:07:32;3.13;;;2.30;;
84379;SDS011;74571;52.514;13.468;2023-12-28T03:09:58;4.07;;;2.22;;
84379;SDS011;74571;52.514;13.468;2023-12-28T03:12:24;4.27;;;2.20;;
84379;SDS011;74571;52.514;13.468;2023-12-28T03:14:49;3.85;;;2.00;;
84379;SDS011;74571;52.514;13.468;2023-12-28T03:17:14;3.10;;;1.90;;
84379;SDS011;74571;52.514;13.468;2023-12-28T03:19:40;2.97;;;1.93;;
84379;SDS011;74571;52.514;13.468;2023-12-28T03:22:05;3.07;;;1.90;;
84379;SDS011;74571;52.514;13.468;2023-12-28T03:24:30;2.58;;;1.98;;
84379;SDS011;74571;52.514;13.468;2023-12-28T03:26:56;2.40;;;1.70;;
84379;SDS011;74571;52.514;13.468;2023-12-28T03:29:21;3.27;;;2.00;;
84379;SDS011;74571;52.514;13.468;2023-12-28T03:31:46;3.53;;;1.80;;
84379;SDS011;74571;52.514;13.468;2023-12-28T03:34:11;3.73;;;2.07;;
84379;SDS011;74571;52.514;13.468;2023-12-28T03:36:37;2.50;;;1.93;;
84379;SDS011;74571;52.514;13.468;2023-12-28T03:39:02;3.03;;;2.00;;
84379;SDS011;74571;52.514;13.468;2023-12-28T03:41:28;3.42;;;2.08;;
84379;SDS011;74571;52.514;13.468;2023-12-28T03:43:54;3.53;;;1.92;;
84379;SDS011;74571;52.514;13.468;2023-12-28T03:46:20;3.10;;;2.15;;
84379;SDS011;74571;52.514;13.468;2023-12-28T03:48:45;2.07;;;1.73;;
84379;SDS011;74571;52.514;13.468;2023-12-28T03:51:14;3.37;;;1.90;;
84379;SDS011;74571;52.514;13.468;2023-12-28T03:53:40;3.63;;;1.83;;
84379;SDS011;74571;52.514;13.468;2023-12-28T03:56:06;2.83;;;1.90;;
84379;SDS011;74571;52.514;13.468;2023-12-28T03:58:31;4.07;;;2.00;;
84379;SDS011;74571;52.514;13.468;2023-12-28T04:00:57;2.20;;;1.70;;
84379;SDS011;74571;52.514;13.468;2023-12-28T04:03:22;3.20;;;2.00;;
84379;SDS011;74571;52.514;13.468;2023-12-28T04:05:47;5.43;;;2.23;;
84379;SDS011;74571;52.514;13.468;2023-12-28T04:08:12;3.63;;;1.97;;
84379;SDS011;74571;52.514;13.468;2023-12-28T04:10:38;3.10;;;1.80;;
84379;SDS011;74571;52.514;13.468;2023-12-28T04:13:03;3.37;;;1.80;;
84379;SDS011;74571;52.514;13.468;2023-12-28T04:15:29;3.63;;;2.23;;
84379;SDS011;74571;52.514;13.468;2023-12-28T04:17:55;3.95;;;2.03;;
84379;SDS011;74571;52.514;13.468;2023-12-28T04:20:20;4.83;;;2.23;;
84379;SDS011;74571;52.514;13.468;2023-12-28T04:22:45;2.43;;;1.90;;
84379;SDS011;74571;52.514;13.468;2023-12-28T04:25:11;3.73;;;1.93;;
84379;SDS011;74571;52.514;13.468;2023-12-28T04:27:37;3.57;;;2.17;;
84379;SDS011;74571;52.514;13.468;2023-12-28T04:30:03;3.53;;;1.90;;
84379;SDS011;74571;52.514;13.468;2023-12-28T04:32:30;4.03;;;2.10;;
84379;SDS011;74571;52.514;13.468;2023-12-28T04:34:55;3.40;;;2.00;;
84379;SDS011;74571;52.514;13.468;2023-12-28T04:37:21;3.78;;;2.47;;
84379;SDS011;74571;52.514;13.468;2023-12-28T04:39:46;2.87;;;1.90;;
84379;SDS011;74571;52.514;13.468;2023-12-28T04:42:11;3.10;;;2.20;;
84379;SDS011;74571;52.514;13.468;2023-12-28T04:44:37;2.80;;;1.90;;
84379;SDS011;74571;52.514;13.468;2023-12-28T04:47:03;3.17;;;2.00;;
84379;SDS011;74571;52.514;13.468;2023-12-28T04:49:29;3.28;;;1.95;;
84379;SDS011;74571;52.514;13.468;2023-12-28T04:51:54;4.37;;;2.00;;
84379;SDS011;74571;52.514;13.468;2023-12-28T04:54:20;2.67;;;1.80;;
84379;SDS011;74571;52.514;13.468;2023-12-28T04:56:45;2.30;;;1.70;;
84379;SDS011;74571;52.514;13.468;2023-12-28T04:59:11;3.23;;;2.10;;
84379;SDS011;74571;52.514;13.468;2023-12-28T05:01:45;2.87;;;1.97;;
84379;SDS011;74571;52.514;13.468;2023-12-28T05:04:11;3.08;;;2.05;;
84379;SDS011;74571;52.514;13.468;2023-12-28T05:06:36;2.88;;;2.10;;
84379;SDS011;74571;52.514;13.468;2023-12-28T05:09:02;4.40;;;2.00;;
84379;SDS011;74571;52.514;13.468;2023-12-28T05:11:27;3.47;;;2.05;;
84379;SDS011;74571;52.514;13.468;2023-12-28T05:13:53;1.70;;;1.53;;
84379;SDS011;74571;52.514;13.468;2023-12-28T05:16:18;2.95;;;2.00;;
84379;SDS011;74571;52.514;13.468;2023-12-28T05:18:44;3.53;;;2.10;;
84379;SDS011;74571;52.514;13.468;2023-12-28T05:21:09;2.20;;;1.80;;
84379;SDS011;74571;52.514;13.468;2023-12-28T05:23:34;2.50;;;1.80;;
84379;SDS011;74571;52.514;13.468;2023-12-28T05:25:59;4.03;;;2.13;;
84379;SDS011;74571;52.514;13.468;2023-12-28T05:28:25;3.83;;;1.90;;
84379;SDS011;74571;52.514;13.468;2023-12-28T05:30:50;1.97;;;1.67;;
84379;SDS011;74571;52.514;13.468;2023-12-28T05:33:15;3.37;;;2.10;;
84379;SDS011;74571;52.514;13.468;2023-12-28T05:35:40;2.63;;;1.93;;
84379;SDS011;74571;52.514;13.468;2023-12-28T05:38:05;3.13;;;2.00;;
84379;SDS011;74571;52.514;13.468;2023-12-28T05:40:31;5.37;;;2.23;;
84379;SDS011;74571;52.514;13.468;2023-12-28T05:42:56;3.63;;;2.27;;
84379;SDS011;74571;52.514;13.468;2023-12-28T05:45:21;3.40;;;2.43;;
84379;SDS011;74571;52.514;13.468;2023-12-28T05:47:46;3.13;;;2.13;;
84379;SDS011;74571;52.514;13.468;2023-12-28T05:50:12;5.00;;;2.00;;
84379;SDS011;74571;52.514;13.468;2023-12-28T05:52:38;2.83;;;1.73;;
84379;SDS011;74571;52.514;13.468;2023-12-28T05:55:03;3.47;;;2.20;;
84379;SDS011;74571;52.514;13.468;2023-12-28T05:57:29;3.50;;;1.98;;
84379;SDS011;74571;52.514;13.468;2023-12-28T05:59:56;4.25;;;1.92;;
84379;SDS011;74571;52.514;13.468;2023-12-28T06:02:22;4.82;;;2.35;;
84379;SDS011;74571;52.514;13.468;2023-12-28T06:04:47;2.17;;;1.70;;
84379;SDS011;74571;52.514;13.468;2023-12-28T06:07:13;3.73;;;1.87;;
84379;SDS011;74571;52.514;13.468;2023-12-28T06:09:38;5.28;;;2.28;;
84379;SDS011;74571;52.514;13.468;2023-12-28T06:12:06;2.70;;;1.90;;
84379;SDS011;74571;52.514;13.468;2023-12-28T06:14:32;2.92;;;2.00;;
84379;SDS011;74571;52.514;13.468;2023-12-28T06:16:57;3.73;;;2.13;;
84379;SDS011;74571;52.514;13.468;2023-12-28T06:19:22;4.10;;;1.90;;
84379;SDS011;74571;52.514;13.468;2023-12-28T06:21:48;4.60;;;1.87;;
84379;SDS011;74571;52.514;13.468;2023-12-28T06:24:13;3.00;;;2.30;;
84379;SDS011;74571;52.514;13.468;2023-12-28T06:26:40;2.50;;;1.80;;
84379;SDS011;74571;52.514;13.468;2023-12-28T06:29:08;3.03;;;1.90;;
84379;SDS011;74571;52.514;13.468;2023-12-28T06:31:34;3.20;;;1.80;;
84379;SDS011;74571;52.514;13.468;2023-12-28T06:34:04;3.95;;;2.03;;
84379;SDS011;74571;52.514;13.468;2023-12-28T06:36:29;2.97;;;2.05;;
84379;SDS011;74571;52.514;13.468;2023-12-28T06:38:55;2.92;;;2.20;;
84379;SDS011;74571;52.514;13.468;2023-12-28T06:41:20;5.07;;;2.27;;
84379;SDS011;74571;52.514;13.468;2023-12-28T06:43:45;3.13;;;1.93;;
84379;SDS011;74571;52.514;13.468;2023-12-28T06:46:11;4.00;;;2.43;;
84379;SDS011;74571;52.514;13.468;2023-12-28T06:48:36;2.77;;;2.07;;
84379;SDS011;74571;52.514;13.468;2023-12-28T06:51:05;2.45;;;2.25;;
84379;SDS011;74571;52.514;13.468;2023-12-28T06:53:30;5.27;;;2.20;;
84379;SDS011;74571;52.514;13.468;2023-12-28T06:55:55;2.97;;;2.17;;
84379;SDS011;74571;52.514;13.468;2023-12-28T06:58:21;3.75;;;2.22;;
84379;SDS011;74571;52.514;13.468;2023-12-28T07:00:46;3.47;;;2.20;;
84379;SDS011;74571;52.514;13.468;2023-12-28T07:03:11;4.47;;;2.27;;
84379;SDS011;74571;52.514;13.468;2023-12-28T07:05:36;2.83;;;2.10;;
84379;SDS011;74571;52.514;13.468;2023-12-28T07:08:02;3.13;;;2.20;;
84379;SDS011;74571;52.514;13.468;2023-12-28T07:10:27;6.15;;;2.30;;
84379;SDS011;74571;52.514;13.468;2023-12-28T07:12:52;2.67;;;2.10;;
84379;SDS011;74571;52.514;13.468;2023-12-28T07:15:18;3.40;;;1.90;;
84379;SDS011;74571;52.514;13.468;2023-12-28T07:17:43;3.03;;;1.97;;
84379;SDS011;74571;52.514;13.468;2023-12-28T07:20:08;2.83;;;2.03;;
84379;SDS011;74571;52.514;13.468;2023-12-28T07:22:36;3.33;;;2.10;;
84379;SDS011;74571;52.514;13.468;2023-12-28T07:25:08;3.70;;;2.30;;
84379;SDS011;74571;52.514;13.468;2023-12-28T07:27:35;4.25;;;2.30;;
84379;SDS011;74571;52.514;13.468;2023-12-28T07:30:02;4.00;;;2.00;;
84379;SDS011;74571;52.514;13.468;2023-12-28T07:32:30;3.50;;;2.03;;
84379;SDS011;74571;52.514;13.468;2023-12-28T07:34:56;2.90;;;1.98;;
84379;SDS011;74571;52.514;13.468;2023-12-28T07:37:21;4.00;;;2.20;;
84379;SDS011;74571;52.514;13.468;2023-12-28T07:39:46;2.80;;;2.03;;
84379;SDS011;74571;52.514;13.468;2023-12-28T07:42:12;4.80;;;2.00;;
84379;SDS011;74571;52.514;13.468;2023-12-28T07:44:38;3.88;;;2.55;;
84379;SDS011;74571;52.514;13.468;2023-12-28T07:47:03;4.78;;;2.08;;
84379;SDS011;74571;52.514;13.468;2023-12-28T07:49:30;3.92;;;2.13;;
84379;SDS011;74571;52.514;13.468;2023-12-28T07:51:56;4.18;;;2.10;;
84379;SDS011;74571;52.514;13.468;2023-12-28T07:54:21;4.60;;;2.40;;
84379;SDS011;74571;52.514;13.468;2023-12-28T07:56:46;3.43;;;2.07;;
84379;SDS011;74571;52.514;13.468;2023-12-28T07:59:12;5.13;;;2.13;;
84379;SDS011;74571;52.514;13.468;2023-12-28T08:01:37;7.53;;;2.67;;
84379;SDS011;74571;52.514;13.468;2023-12-28T08:04:02;3.97;;;2.20;;
84379;SDS011;74571;52.514;13.468;2023-12-28T08:06:28;3.47;;;2.10;;
84379;SDS011;74571;52.514;13.468;2023-12-28T08:08:56;3.15;;;2.20;;
84379;SDS011;74571;52.514;13.468;2023-12-28T08:11:21;3.90;;;2.57;;
84379;SDS011;74571;52.514;13.468;2023-12-28T08:13:46;3.20;;;2.30;;
84379;SDS011;74571;52.514;13.468;2023-12-28T08:16:14;4.37;;;2.27;;
84379;SDS011;74571;52.514;13.468;2023-12-28T08:18:39;3.80;;;2.13;;
84379;SDS011;74571;52.514;13.468;2023-12-28T08:21:04;3.50;;;2.43;;
84379;SDS011;74571;52.514;13.468;2023-12-28T08:23:30;3.10;;;2.30;;
84379;SDS011;74571;52.514;13.468;2023-12-28T08:25:55;2.93;;;2.20;;
84379;SDS011;74571;52.514;13.468;2023-12-28T08:28:20;4.00;;;2.80;;
84379;SDS011;74571;52.514;13.468;2023-12-28T08:30:46;5.43;;;2.85;;
84379;SDS011;74571;52.514;13.468;2023-12-28T08:33:11;5.00;;;2.33;;
84379;SDS011;74571;52.514;13.468;2023-12-28T08:35:37;3.70;;;2.60;;
84379;SDS011;74571;52.514;13.468;2023-12-28T08:38:02;3.73;;;2.40;;
84379;SDS011;74571;52.514;13.468;2023-12-28T08:40:27;2.88;;;2.28;;
84379;SDS011;74571;52.514;13.468;2023-12-28T08:42:53;4.20;;;2.90;;
84379;SDS011;74571;52.514;13.468;2023-12-28T08:45:18;4.53;;;2.80;;
84379;SDS011;74571;52.514;13.468;2023-12-28T08:47:43;3.77;;;2.27;;
84379;SDS011;74571;52.514;13.468;2023-12-28T08:50:08;8.37;;;2.90;;
84379;SDS011;74571;52.514;13.468;2023-12-28T08:52:34;4.60;;;2.85;;
84379;SDS011;74571;52.514;13.468;2023-12-28T08:54:59;4.03;;;2.77;;
84379;SDS011;74571;52.514;13.468;2023-12-28T08:57:26;5.20;;;2.97;;
84379;SDS011;74571;52.514;13.468;2023-12-28T08:59:51;4.87;;;2.50;;
84379;SDS011;74571;52.514;13.468;2023-12-28T09:02:16;2.80;;;2.27;;
84379;SDS011;74571;52.514;13.468;2023-12-28T09:04:41;6.40;;;3.30;;
84379;SDS011;74571;52.514;13.468;2023-12-28T09:07:07;4.43;;;2.83;;
84379;SDS011;74571;52.514;13.468;2023-12-28T09:09:32;3.90;;;2.80;;
84379;SDS011;74571;52.514;13.468;2023-12-28T09:11:57;4.43;;;2.50;;
84379;SDS011;74571;52.514;13.468;2023-12-28T09:14:22;5.07;;;2.90;;
84379;SDS011;74571;52.514;13.468;2023-12-28T09:16:48;5.20;;;3.47;;
84379;SDS011;74571;52.514;13.468;2023-12-28T09:19:13;4.13;;;2.60;;
84379;SDS011;74571;52.514;13.468;2023-12-28T09:21:39;5.13;;;3.05;;
84379;SDS011;74571;52.514;13.468;2023-12-28T09:24:05;3.60;;;2.63;;
84379;SDS011;74571;52.514;13.468;2023-12-28T09:26:31;7.55;;;3.53;;
84379;SDS011;74571;52.514;13.468;2023-12-28T09:28:57;4.70;;;2.88;;
84379;SDS011;74571;52.514;13.468;2023-12-28T09:31:23;5.43;;;2.90;;
84379;SDS011;74571;52.514;13.468;2023-12-28T09:33:48;4.27;;;2.70;;
84379;SDS011;74571;52.514;13.468;2023-12-28T09:36:13;5.10;;;2.77;;
84379;SDS011;74571;52.514;13.468;2023-12-28T09:38:39;6.40;;;3.58;;
84379;SDS011;74571;52.514;13.468;2023-12-28T09:41:09;3.85;;;2.70;;
84379;SDS011;74571;52.514;13.468;2023-12-28T09:43:41;5.35;;;2.97;;
84379;SDS011;74571;52.514;13.468;2023-12-28T09:46:15;6.95;;;2.97;;
84379;SDS011;74571;52.514;13.468;2023-12-28T09:48:40;4.47;;;2.80;;
84379;SDS011;74571;52.514;13.468;2023-12-28T09:51:06;7.13;;;3.08;;
84379;SDS011;74571;52.514;13.468;2023-12-28T09:53:35;3.58;;;2.55;;
84379;SDS011;74571;52.514;13.468;2023-12-28T09:56:01;3.97;;;2.67;;
84379;SDS011;74571;52.514;13.468;2023-12-28T09:58:28;5.45;;;2.75;;
84379;SDS011;74571;52.514;13.468;2023-12-28T10:00:54;5.95;;;3.05;;
84379;SDS011;74571;52.514;13.468;2023-12-28T10:03:19;4.30;;;2.60;;
84379;SDS011;74571;52.514;13.468;2023-12-28T10:05:45;5.17;;;3.20;;
84379;SDS011;74571;52.514;13.468;2023-12-28T10:08:12;4.95;;;3.30;;
84379;SDS011;74571;52.514;13.468;2023-12-28T10:10:39;4.45;;;3.30;;
84379;SDS011;74571;52.514;13.468;2023-12-28T10:13:05;6.18;;;3.20;;
84379;SDS011;74571;52.514;13.468;2023-12-28T10:15:37;4.35;;;2.83;;
84379;SDS011;74571;52.514;13.468;2023-12-28T10:18:03;6.18;;;2.70;;
84379;SDS011;74571;52.514;13.468;2023-12-28T10:20:31;4.47;;;2.88;;
84379;SDS011;74571;52.514;13.468;2023-12-28T10:22:57;4.95;;;3.22;;
84379;SDS011;74571;52.514;13.468;2023-12-28T10:25:24;4.65;;;3.42;;
84379;SDS011;74571;52.514;13.468;2023-12-28T10:27:52;4.88;;;2.70;;
84379;SDS011;74571;52.514;13.468;2023-12-28T10:30:19;4.55;;;2.50;;
84379;SDS011;74571;52.514;13.468;2023-12-28T10:32:45;5.50;;;2.53;;
84379;SDS011;74571;52.514;13.468;2023-12-28T10:35:10;5.13;;;2.73;;
84379;SDS011;74571;52.514;13.468;2023-12-28T10:37:39;5.68;;;2.60;;
84379;SDS011;74571;52.514;13.468;2023-12-28T10:40:12;5.30;;;3.22;;
84379;SDS011;74571;52.514;13.468;2023-12-28T10:42:44;6.40;;;2.75;;
84379;SDS011;74571;52.514;13.468;2023-12-28T10:45:14;5.00;;;3.00;;
84379;SDS011;74571;52.514;13.468;2023-12-28T10:47:44;6.10;;;3.35;;
84379;SDS011;74571;52.514;13.468;2023-12-28T10:50:19;6.78;;;3.83;;
84379;SDS011;74571;52.514;13.468;2023-12-28T10:52:45;7.90;;;3.67;;
84379;SDS011;74571;52.514;13.468;2023-12-28T10:59:17;8.90;;;4.35;;
84379;SDS011;74571;52.514;13.468;2023-12-28T11:01:31;5.45;;;3.17;;
84379;SDS011;74571;52.514;13.468;2023-12-28T11:04:02;9.93;;;2.92;;
84379;SDS011;74571;52.514;13.468;2023-12-28T11:06:33;4.70;;;3.15;;
84379;SDS011;74571;52.514;13.468;2023-12-28T11:09:00;5.65;;;3.03;;
84379;SDS011;74571;52.514;13.468;2023-12-28T11:11:26;6.43;;;3.38;;
84379;SDS011;74571;52.514;13.468;2023-12-28T11:13:52;4.50;;;3.03;;
84379;SDS011;74571;52.514;13.468;2023-12-28T11:16:20;6.05;;;3.60;;
84379;SDS011;74571;52.514;13.468;2023-12-28T11:18:47;5.85;;;3.00;;
84379;SDS011;74571;52.514;13.468;2023-12-28T11:21:13;5.97;;;3.38;;
84379;SDS011;74571;52.514;13.468;2023-12-28T11:23:39;5.65;;;3.05;;
84379;SDS011;74571;52.514;13.468;2023-12-28T11:26:14;4.05;;;2.80;;
84379;SDS011;74571;52.514;13.468;2023-12-28T11:28:44;3.95;;;2.60;;
84379;SDS011;74571;52.514;13.468;2023-12-28T11:31:16;3.55;;;2.58;;
84379;SDS011;74571;52.514;13.468;2023-12-28T11:33:46;4.53;;;2.80;;
84379;SDS011;74571;52.514;13.468;2023-12-28T11:36:22;3.50;;;2.55;;
84379;SDS011;74571;52.514;13.468;2023-12-28T11:38:51;4.53;;;2.72;;
84379;SDS011;74571;52.514;13.468;2023-12-28T11:41:20;5.00;;;3.15;;
84379;SDS011;74571;52.514;13.468;2023-12-28T11:43:51;5.45;;;3.20;;
84379;SDS011;74571;52.514;13.468;2023-12-28T11:46:18;3.97;;;2.70;;
84379;SDS011;74571;52.514;13.468;2023-12-28T11:48:44;4.90;;;2.97;;
84379;SDS011;74571;52.514;13.468;2023-12-28T11:51:09;4.30;;;2.87;;
84379;SDS011;74571;52.514;13.468;2023-12-28T11:53:35;5.87;;;3.63;;
84379;SDS011;74571;52.514;13.468;2023-12-28T11:56:01;4.10;;;2.72;;
84379;SDS011;74571;52.514;13.468;2023-12-28T11:58:27;3.60;;;2.40;;
84379;SDS011;74571;52.514;13.468;2023-12-28T12:00:53;3.93;;;2.67;;
84379;SDS011;74571;52.514;13.468;2023-12-28T12:03:18;4.33;;;2.83;;
84379;SDS011;74571;52.514;13.468;2023-12-28T12:05:44;6.10;;;3.05;;
84379;SDS011;74571;52.514;13.468;2023-12-28T12:08:10;3.37;;;2.30;;
84379;SDS011;74571;52.514;13.468;2023-12-28T12:10:40;5.88;;;2.72;;
84379;SDS011;74571;52.514;13.468;2023-12-28T12:13:06;5.38;;;3.08;;
84379;SDS011;74571;52.514;13.468;2023-12-28T12:15:31;4.80;;;2.78;;
84379;SDS011;74571;52.514;13.468;2023-12-28T12:17:56;6.38;;;2.67;;
84379;SDS011;74571;52.514;13.468;2023-12-28T12:20:22;4.70;;;2.97;;
84379;SDS011;74571;52.514;13.468;2023-12-28T12:22:48;4.30;;;2.78;;
84379;SDS011;74571;52.514;13.468;2023-12-28T12:25:14;4.03;;;2.88;;
84379;SDS011;74571;52.514;13.468;2023-12-28T12:27:41;6.95;;;3.30;;
84379;SDS011;74571;52.514;13.468;2023-12-28T12:30:06;3.97;;;2.47;;
84379;SDS011;74571;52.514;13.468;2023-12-28T12:32:32;5.55;;;3.40;;
84379;SDS011;74571;52.514;13.468;2023-12-28T12:34:58;4.82;;;2.50;;
84379;SDS011;74571;52.514;13.468;2023-12-28T12:37:23;4.20;;;2.60;;
84379;SDS011;74571;52.514;13.468;2023-12-28T12:39:49;5.37;;;2.47;;
84379;SDS011;74571;52.514;13.468;2023-12-28T12:42:14;4.72;;;2.35;;
84379;SDS011;74571;52.514;13.468;2023-12-28T12:44:40;3.20;;;2.57;;
84379;SDS011;74571;52.514;13.468;2023-12-28T12:47:06;4.93;;;2.50;;
84379;SDS011;74571;52.514;13.468;2023-12-28T12:49:32;7.03;;;2.88;;
84379;SDS011;74571;52.514;13.468;2023-12-28T12:51:57;4.30;;;2.80;;
84379;SDS011;74571;52.514;13.468;2023-12-28T12:54:22;3.88;;;2.53;;
84379;SDS011;74571;52.514;13.468;2023-12-28T12:56:49;4.83;;;2.60;;
84379;SDS011;74571;52.514;13.468;2023-12-28T12:59:15;5.40;;;2.60;;
84379;SDS011;74571;52.514;13.468;2023-12-28T13:01:42;4.82;;;3.13;;
84379;SDS011;74571;52.514;13.468;2023-12-28T13:04:08;5.13;;;2.60;;
84379;SDS011;74571;52.514;13.468;2023-12-28T13:06:34;6.40;;;2.70;;
84379;SDS011;74571;52.514;13.468;2023-12-28T13:08:59;3.77;;;2.53;;
84379;SDS011;74571;52.514;13.468;2023-12-28T13:11:25;6.18;;;2.90;;
84379;SDS011;74571;52.514;13.468;2023-12-28T13:13:51;6.97;;;3.03;;
84379;SDS011;74571;52.514;13.468;2023-12-28T13:16:17;4.97;;;2.83;;
84379;SDS011;74571;52.514;13.468;2023-12-28T13:18:42;5.07;;;2.53;;
84379;SDS011;74571;52.514;13.468;2023-12-28T13:21:07;5.27;;;3.03;;
84379;SDS011;74571;52.514;13.468;2023-12-28T13:23:33;3.90;;;2.13;;
84379;SDS011;74571;52.514;13.468;2023-12-28T13:25:58;3.23;;;2.40;;
84379;SDS011;74571;52.514;13.468;2023-12-28T13:28:23;4.90;;;3.10;;
84379;SDS011;74571;52.514;13.468;2023-12-28T13:30:49;5.88;;;2.97;;
84379;SDS011;74571;52.514;13.468;2023-12-28T13:33:16;4.72;;;2.70;;
84379;SDS011;74571;52.514;13.468;2023-12-28T13:35:41;3.95;;;2.97;;
84379;SDS011;74571;52.514;13.468;2023-12-28T13:38:06;3.80;;;2.50;;
84379;SDS011;74571;52.514;13.468;2023-12-28T13:40:32;8.33;;;3.63;;
84379;SDS011;74571;52.514;13.468;2023-12-28T13:42:57;4.13;;;2.47;;
84379;SDS011;74571;52.514;13.468;2023-12-28T13:45:22;4.83;;;2.33;;
84379;SDS011;74571;52.514;13.468;2023-12-28T13:47:49;4.68;;;2.67;;
84379;SDS011;74571;52.514;13.468;2023-12-28T13:50:14;6.83;;;2.90;;
84379;SDS011;74571;52.514;13.468;2023-12-28T13:52:39;3.97;;;2.60;;
84379;SDS011;74571;52.514;13.468;2023-12-28T13:55:04;5.37;;;2.73;;
84379;SDS011;74571;52.514;13.468;2023-12-28T13:57:30;5.30;;;2.85;;
84379;SDS011;74571;52.514;13.468;2023-12-28T13:59:55;5.93;;;2.90;;
84379;SDS011;74571;52.514;13.468;2023-12-28T14:02:25;6.95;;;3.35;;
84379;SDS011;74571;52.514;13.468;2023-12-28T14:04:50;3.93;;;2.77;;
84379;SDS011;74571;52.514;13.468;2023-12-28T14:07:16;4.22;;;2.70;;
84379;SDS011;74571;52.514;13.468;2023-12-28T14:09:41;5.17;;;2.67;;
84379;SDS011;74571;52.514;13.468;2023-12-28T14:12:07;6.07;;;2.80;;
84379;SDS011;74571;52.514;13.468;2023-12-28T14:14:32;4.88;;;2.90;;
84379;SDS011;74571;52.514;13.468;2023-12-28T14:16:57;7.10;;;3.17;;
84379;SDS011;74571;52.514;13.468;2023-12-28T14:19:23;5.00;;;3.17;;
84379;SDS011;74571;52.514;13.468;2023-12-28T14:21:48;10.97;;;2.90;;
84379;SDS011;74571;52.514;13.468;2023-12-28T14:24:14;7.68;;;4.15;;
84379;SDS011;74571;52.514;13.468;2023-12-28T14:26:40;6.15;;;3.08;;
84379;SDS011;74571;52.514;13.468;2023-12-28T14:29:09;4.82;;;2.88;;
84379;SDS011;74571;52.514;13.468;2023-12-28T14:31:35;6.18;;;2.90;;
84379;SDS011;74571;52.514;13.468;2023-12-28T14:34:01;3.95;;;2.65;;
84379;SDS011;74571;52.514;13.468;2023-12-28T14:36:30;4.30;;;2.88;;